createdAt,value
2023-02-17T00:01:21.215Z,14.13
2023-02-17T00:03:49.705Z,14.27
2023-02-17T00:06:19.767Z,15.55
2023-02-17T00:08:49.580Z,16.67
2023-02-17T00:11:18.193Z,13.80
2023-02-17T00:13:46.757Z,13.07
2023-02-17T00:16:18.497Z,16.02
2023-02-17T00:18:47.139Z,12.88
2023-02-17T00:21:17.149Z,14.02
2023-02-17T00:23:46.160Z,13.35
2023-02-17T00:26:16.362Z,12.70
2023-02-17T00:28:45.007Z,13.90
2023-02-17T00:31:16.155Z,13.18
2023-02-17T00:33:44.610Z,13.07
2023-02-17T00:36:14.758Z,15.88
2023-02-17T00:38:43.030Z,12.43
2023-02-17T00:41:11.014Z,12.82
2023-02-17T00:43:40.792Z,14.32
2023-02-17T00:46:09.093Z,14.65
2023-02-17T00:48:37.579Z,12.73
2023-02-17T00:51:06.259Z,12.43
2023-02-17T00:53:36.496Z,13.60
2023-02-17T00:56:05.678Z,14.45
2023-02-17T00:58:34.050Z,14.05
2023-02-17T01:01:03.828Z,16.58
2023-02-17T01:03:32.573Z,13.33
2023-02-17T01:06:00.717Z,14.93
2023-02-17T01:08:28.996Z,16.85
2023-02-17T01:10:58.157Z,13.85
2023-02-17T01:13:26.451Z,13.07
2023-02-17T01:15:55.217Z,13.33
2023-02-17T01:18:25.319Z,15.80
2023-02-17T01:20:53.575Z,15.73
2023-02-17T01:23:21.902Z,13.82
2023-02-17T01:25:50.637Z,15.73
2023-02-17T01:28:21.219Z,14.40
2023-02-17T01:30:50.080Z,11.20
2023-02-17T01:33:18.468Z,16.75
2023-02-17T01:35:48.020Z,15.00
2023-02-17T01:38:16.275Z,15.75
2023-02-17T01:40:48.143Z,14.03
2023-02-17T01:43:17.442Z,14.82
2023-02-17T01:45:48.040Z,14.82
2023-02-17T01:48:18.118Z,13.43
2023-02-17T01:50:50.709Z,16.02
2023-02-17T01:53:21.240Z,14.83
2023-02-17T01:55:49.660Z,13.65
2023-02-17T01:58:20.598Z,13.80
2023-02-17T02:00:49.286Z,13.07
2023-02-17T02:03:17.656Z,13.57
2023-02-17T02:05:45.841Z,13.93
2023-02-17T02:08:16.074Z,13.60
2023-02-17T02:10:44.122Z,13.90
2023-02-17T02:13:12.491Z,10.65
2023-02-17T02:15:44.333Z,11.18
2023-02-17T02:18:21.530Z,10.70
2023-02-17T02:21:22.786Z,13.38
2023-02-17T02:23:59.669Z,12.13
2023-02-17T02:26:58.057Z,14.25
2023-02-17T02:29:53.008Z,10.60
2023-02-17T02:32:41.005Z,12.67
2023-02-17T02:35:15.064Z,12.07
2023-02-17T02:37:47.433Z,13.52
2023-02-17T02:40:16.749Z,10.55
2023-02-17T02:42:45.673Z,11.82
2023-02-17T02:45:14.066Z,10.33
2023-02-17T02:47:48.873Z,12.15
2023-02-17T02:50:22.733Z,13.48
2023-02-17T02:53:02.875Z,15.48
2023-02-17T02:55:42.841Z,13.23
2023-02-17T02:58:16.500Z,12.80
2023-02-17T03:00:53.933Z,10.93
2023-02-17T03:03:30.461Z,14.13
2023-02-17T03:06:05.179Z,11.95
2023-02-17T03:08:37.220Z,12.95
2023-02-17T03:11:05.780Z,12.87
2023-02-17T03:13:42.861Z,13.00
2023-02-17T03:16:14.855Z,13.93
2023-02-17T03:18:44.271Z,12.80
2023-02-17T03:21:16.130Z,10.77
2023-02-17T03:23:44.471Z,12.70
2023-02-17T03:26:12.777Z,11.35
2023-02-17T03:28:40.884Z,14.20
2023-02-17T03:31:09.216Z,12.73
2023-02-17T03:33:37.328Z,16.40
2023-02-17T03:36:08.081Z,10.20
2023-02-17T03:38:36.260Z,11.45
2023-02-17T03:41:04.822Z,15.25
2023-02-17T03:43:32.861Z,12.68
2023-02-17T03:46:01.188Z,12.68
2023-02-17T03:48:29.281Z,10.80
2023-02-17T03:50:57.606Z,11.85
2023-02-17T03:53:26.956Z,13.65
2023-02-17T03:55:55.329Z,12.65
2023-02-17T03:58:23.729Z,13.40
2023-02-17T04:00:51.941Z,10.03
2023-02-17T04:03:20.010Z,10.80
2023-02-17T04:05:48.265Z,10.60
2023-02-17T04:08:16.316Z,10.50
2023-02-17T04:10:46.040Z,15.05
2023-02-17T04:13:14.006Z,12.70
2023-02-17T04:15:42.325Z,12.55
2023-02-17T04:18:10.382Z,14.32
2023-02-17T04:20:38.633Z,10.63
2023-02-17T04:23:06.674Z,10.93
2023-02-17T04:25:35.335Z,10.70
2023-02-17T04:28:05.497Z,11.38
2023-02-17T04:30:34.069Z,12.38
2023-02-17T04:33:02.655Z,12.30
2023-02-17T04:35:30.976Z,13.50
2023-02-17T04:37:59.022Z,9.00
2023-02-17T04:40:27.387Z,14.35
2023-02-17T04:42:55.369Z,12.18
2023-02-17T04:45:25.809Z,14.80
2023-02-17T04:47:53.784Z,11.13
2023-02-17T04:50:22.310Z,13.17
2023-02-17T04:52:50.347Z,11.73
2023-02-17T04:55:18.896Z,9.90
2023-02-17T04:57:46.893Z,12.48
2023-02-17T05:00:15.734Z,12.35
2023-02-17T05:02:45.106Z,11.37
2023-02-17T05:05:15.173Z,12.00
2023-02-17T05:07:43.412Z,11.93
2023-02-17T05:10:12.012Z,12.98
2023-02-17T05:12:40.466Z,12.52
2023-02-17T05:15:09.517Z,15.80
2023-02-17T05:17:37.947Z,15.85
2023-02-17T05:20:09.582Z,10.30
2023-02-17T05:22:37.695Z,11.07
2023-02-17T05:25:06.675Z,13.10
2023-02-17T05:27:34.996Z,19.03
2023-02-17T05:30:03.361Z,12.75
2023-02-17T05:32:31.499Z,13.57
2023-02-17T05:34:59.956Z,15.85
2023-02-17T05:37:29.348Z,11.70
2023-02-17T05:39:57.568Z,12.80
2023-02-17T05:42:28.689Z,13.40
2023-02-17T05:44:57.078Z,11.70
2023-02-17T05:47:27.551Z,11.90
2023-02-17T05:49:55.944Z,13.40
2023-02-17T05:52:24.006Z,11.20
2023-02-17T05:54:53.609Z,11.13
2023-02-17T05:57:21.550Z,13.75
2023-02-17T05:59:49.845Z,10.90
2023-02-17T06:02:17.798Z,10.18
2023-02-17T06:04:46.396Z,12.40
2023-02-17T06:07:15.584Z,11.65
2023-02-17T06:09:45.342Z,11.43
2023-02-17T06:12:16.465Z,12.18
2023-02-17T06:14:44.693Z,11.52
2023-02-17T06:17:12.697Z,12.83
2023-02-17T06:19:40.940Z,12.77
2023-02-17T06:22:09.006Z,11.60
2023-02-17T06:24:37.694Z,9.80
2023-02-17T06:27:05.802Z,11.85
2023-02-17T06:29:35.481Z,11.23
2023-02-17T06:32:03.680Z,11.15
2023-02-17T06:34:31.944Z,12.02
2023-02-17T06:37:00.081Z,10.57
2023-02-17T06:39:28.335Z,10.13
2023-02-17T06:41:56.323Z,10.93
2023-02-17T06:44:24.618Z,10.00
2023-02-17T06:46:54.001Z,10.35
2023-02-17T06:49:23.055Z,10.07
2023-02-17T06:51:51.050Z,10.80
2023-02-17T06:54:19.395Z,10.20
2023-02-17T06:56:47.742Z,9.43
2023-02-17T06:59:15.978Z,12.25
2023-02-17T07:01:44.049Z,14.40
2023-02-17T07:04:13.628Z,13.95
2023-02-17T07:06:41.751Z,9.50
2023-02-17T07:09:11.483Z,12.25
2023-02-17T07:11:39.500Z,11.50
2023-02-17T07:14:07.732Z,13.52
2023-02-17T07:16:35.846Z,11.57
2023-02-17T07:19:04.150Z,11.67
2023-02-17T07:21:33.526Z,14.20
2023-02-17T07:24:01.820Z,13.00
2023-02-17T07:26:29.893Z,12.05
2023-02-17T07:28:58.553Z,13.73
2023-02-17T07:31:26.598Z,11.97
2023-02-17T07:33:54.975Z,10.07
2023-02-17T07:36:23.036Z,13.05
2023-02-17T07:38:52.889Z,12.63
2023-02-17T07:41:24.595Z,11.70
2023-02-17T07:43:57.468Z,11.10
2023-02-17T07:46:25.862Z,12.00
2023-02-17T07:48:54.830Z,13.73
2023-02-17T07:51:23.952Z,10.80
2023-02-17T07:53:54.955Z,15.52
2023-02-17T07:56:23.563Z,13.77
2023-02-17T07:58:52.054Z,11.30
2023-02-17T08:01:22.274Z,13.18
2023-02-17T08:03:51.226Z,11.52
2023-02-17T08:06:20.741Z,11.60
2023-02-17T08:09:07.316Z,12.87
2023-02-17T08:11:54.887Z,9.55
2023-02-17T08:14:24.828Z,10.05
2023-02-17T08:16:53.486Z,10.10
2023-02-17T08:19:22.153Z,10.90
2023-02-17T08:21:50.425Z,10.97
2023-02-17T08:24:19.560Z,9.98
2023-02-17T08:26:48.969Z,10.32
2023-02-17T08:29:17.705Z,9.93
2023-02-17T08:31:45.822Z,11.15
2023-02-17T08:34:15.915Z,9.40
2023-02-17T08:36:43.952Z,9.15
2023-02-17T08:39:14.094Z,8.38
2023-02-17T08:41:42.725Z,9.40
2023-02-17T08:44:14.360Z,8.98
2023-02-17T08:46:43.459Z,10.33
2023-02-17T08:49:12.233Z,9.20
2023-02-17T08:51:40.388Z,9.73
2023-02-17T08:54:12.333Z,9.25
2023-02-17T08:56:40.977Z,9.60
2023-02-17T08:59:10.493Z,10.57
2023-02-17T09:01:41.144Z,8.50
2023-02-17T09:04:10.843Z,9.85
2023-02-17T09:06:41.207Z,7.57
2023-02-17T09:09:11.275Z,9.00
2023-02-17T09:11:39.490Z,8.60
2023-02-17T09:14:17.060Z,10.77
2023-02-17T09:16:53.674Z,7.78
2023-02-17T09:19:24.199Z,7.97
2023-02-17T09:21:53.166Z,8.55
2023-02-17T09:24:21.473Z,7.33
2023-02-17T09:26:49.525Z,8.43
2023-02-17T09:29:17.834Z,7.57
2023-02-17T09:31:46.290Z,7.95
2023-02-17T09:34:16.280Z,9.02
2023-02-17T09:36:44.416Z,7.53
2023-02-17T09:39:14.701Z,9.00
2023-02-17T09:41:47.100Z,8.73
2023-02-17T09:44:21.922Z,8.20
2023-02-17T09:47:02.034Z,8.30
2023-02-17T09:49:37.510Z,7.37
2023-02-17T09:52:10.274Z,9.13
2023-02-17T09:54:44.918Z,8.05
2023-02-17T09:57:19.634Z,7.72
2023-02-17T09:59:50.755Z,7.93
2023-02-17T10:02:24.993Z,6.97
2023-02-17T10:04:55.338Z,8.52
2023-02-17T10:07:27.715Z,10.07
2023-02-17T10:09:59.440Z,11.52
2023-02-17T10:12:31.451Z,9.38
2023-02-17T10:15:05.696Z,7.93
2023-02-17T10:17:37.706Z,9.18
2023-02-17T10:20:10.944Z,8.05
2023-02-17T10:22:39.519Z,7.45
2023-02-17T10:25:15.987Z,8.05
2023-02-17T10:27:47.571Z,7.40
2023-02-17T10:30:24.614Z,7.03
2023-02-17T10:33:03.454Z,8.80
2023-02-17T10:35:45.713Z,7.88
2023-02-17T10:38:17.847Z,7.95
2023-02-17T10:40:48.385Z,6.60
2023-02-17T10:43:23.092Z,8.60
2023-02-17T10:45:53.315Z,9.10
2023-02-17T10:48:23.737Z,8.23
2023-02-17T10:50:55.025Z,7.95
2023-02-17T10:53:27.140Z,9.73
2023-02-17T10:56:01.168Z,9.25
2023-02-17T10:58:33.544Z,8.68
2023-02-17T11:01:02.579Z,8.63
2023-02-17T11:03:31.924Z,6.57
2023-02-17T11:06:03.267Z,8.60
2023-02-17T11:08:34.963Z,8.15
2023-02-17T11:11:05.621Z,8.35
2023-02-17T11:13:37.245Z,6.28
2023-02-17T11:16:06.674Z,6.35
2023-02-17T11:18:36.871Z,6.40
2023-02-17T11:21:09.110Z,6.55
2023-02-17T11:23:47.421Z,7.70
2023-02-17T11:26:19.665Z,9.40
2023-02-17T11:28:47.705Z,10.90
2023-02-17T11:31:25.204Z,11.23
2023-02-17T11:33:55.271Z,8.05
2023-02-17T11:36:28.129Z,8.75
2023-02-17T11:38:57.109Z,6.43
2023-02-17T11:41:25.473Z,7.95
2023-02-17T11:43:55.350Z,6.63
2023-02-17T11:46:29.380Z,6.72
2023-02-17T11:49:03.965Z,5.60
2023-02-17T11:51:40.726Z,5.90
2023-02-17T11:54:18.855Z,5.82
2023-02-17T11:56:52.470Z,6.00
2023-02-17T11:59:35.801Z,5.63
2023-02-17T12:02:18.450Z,4.10
2023-02-17T12:04:54.117Z,4.90
2023-02-17T12:07:42.658Z,7.38
2023-02-17T12:10:17.801Z,6.57
2023-02-17T12:12:59.297Z,4.90
2023-02-17T12:15:45.312Z,5.38
2023-02-17T12:18:25.066Z,5.30
2023-02-17T12:20:59.140Z,5.53
2023-02-17T12:23:50.234Z,4.97
2023-02-17T12:26:26.915Z,5.35
2023-02-17T12:29:05.346Z,5.68
2023-02-17T12:31:44.244Z,4.65
2023-02-17T12:34:18.869Z,4.45
2023-02-17T12:36:47.445Z,6.57
2023-02-17T12:39:21.597Z,7.90
2023-02-17T12:41:52.806Z,5.40
2023-02-17T12:44:23.954Z,4.10
2023-02-17T12:46:54.704Z,4.53
2023-02-17T12:49:26.275Z,3.33
2023-02-17T12:51:58.573Z,4.82
2023-02-17T12:54:33.833Z,3.25
2023-02-17T12:57:18.634Z,5.10
2023-02-17T12:59:50.299Z,3.92
2023-02-17T13:02:19.980Z,2.77
2023-02-17T13:04:50.773Z,4.20
2023-02-17T13:07:28.120Z,3.08
2023-02-17T13:09:57.991Z,5.63
2023-02-17T13:12:39.046Z,4.13
2023-02-17T13:15:27.112Z,3.93
2023-02-17T13:17:56.723Z,3.75
2023-02-17T13:20:28.364Z,3.70
2023-02-17T13:23:07.867Z,3.22
2023-02-17T13:25:38.141Z,3.17
2023-02-17T13:28:35.171Z,4.27
2023-02-17T13:31:17.747Z,4.00
2023-02-17T13:33:49.109Z,3.25
2023-02-17T13:36:21.564Z,5.88
2023-02-17T13:39:00.268Z,4.93
2023-02-17T13:41:34.407Z,4.93
2023-02-17T13:44:21.650Z,5.63
2023-02-17T13:46:50.066Z,5.28
2023-02-17T13:49:22.571Z,5.47
2023-02-17T13:51:50.901Z,6.05
2023-02-17T13:54:21.970Z,5.63
2023-02-17T13:56:56.153Z,6.78
2023-02-17T13:59:27.133Z,5.72
2023-02-17T14:01:55.873Z,8.13
2023-02-17T14:04:26.740Z,7.10
2023-02-17T14:06:56.241Z,12.00
2023-02-17T14:09:26.789Z,5.75
2023-02-17T14:11:57.581Z,6.57
2023-02-17T14:14:27.483Z,5.75
2023-02-17T14:17:04.069Z,7.40
2023-02-17T14:19:43.236Z,6.23
2023-02-17T14:22:24.692Z,8.02
2023-02-17T14:25:00.878Z,8.68
2023-02-17T14:27:41.838Z,8.10
2023-02-17T14:30:14.903Z,5.40
2023-02-17T14:32:43.852Z,7.30
2023-02-17T14:35:23.996Z,8.15
2023-02-17T14:37:52.293Z,7.22
2023-02-17T14:40:23.213Z,8.38
2023-02-17T14:42:52.995Z,9.10
2023-02-17T14:45:21.265Z,6.40
2023-02-17T14:47:49.732Z,5.93
2023-02-17T14:50:18.046Z,6.65
2023-02-17T14:52:47.488Z,7.85
2023-02-17T14:55:21.094Z,9.95
2023-02-17T14:57:49.341Z,6.77
2023-02-17T15:00:19.986Z,7.65
2023-02-17T15:02:48.430Z,6.90
2023-02-17T15:05:16.601Z,6.50
2023-02-17T15:07:45.019Z,4.93
2023-02-17T15:10:20.135Z,6.27
2023-02-17T15:12:48.428Z,7.60
2023-02-17T15:15:18.840Z,6.03
2023-02-17T15:17:47.313Z,7.88
2023-02-17T15:20:17.364Z,7.47
2023-02-17T15:22:45.674Z,9.27
2023-02-17T15:25:16.010Z,9.05
2023-02-17T15:27:44.847Z,6.45
2023-02-17T15:30:14.188Z,7.32
2023-02-17T15:32:44.470Z,7.78
2023-02-17T15:35:20.082Z,9.17
2023-02-17T15:37:48.741Z,9.95
2023-02-17T15:40:18.497Z,11.50
2023-02-17T15:42:48.259Z,13.35
2023-02-17T15:45:18.831Z,9.30
2023-02-17T15:47:49.372Z,9.10
2023-02-17T15:50:21.290Z,7.20
2023-02-17T15:52:50.687Z,9.10
2023-02-17T15:55:19.717Z,10.25
2023-02-17T15:57:49.749Z,7.75
2023-02-17T16:00:23.322Z,7.97
2023-02-17T16:02:53.787Z,8.43
2023-02-17T16:05:27.189Z,8.93
2023-02-17T16:07:56.017Z,10.95
2023-02-17T16:10:27.064Z,13.05
2023-02-17T16:12:57.149Z,11.83
2023-02-17T16:15:26.711Z,12.02
2023-02-17T16:17:57.598Z,11.80
2023-02-17T16:20:27.057Z,7.75
2023-02-17T16:22:55.386Z,8.55
2023-02-17T16:25:23.691Z,8.57
2023-02-17T16:27:53.114Z,8.57
2023-02-17T16:30:23.363Z,11.18
2023-02-17T16:32:53.665Z,10.30
2023-02-17T16:35:25.887Z,12.48
2023-02-17T16:37:56.285Z,8.00
2023-02-17T16:40:25.689Z,7.60
2023-02-17T16:42:54.135Z,9.07
2023-02-17T16:45:24.604Z,9.07
2023-02-17T16:47:56.039Z,9.23
2023-02-17T16:50:27.858Z,10.53
2023-02-17T16:52:58.794Z,9.23
2023-02-17T16:55:29.109Z,9.68
2023-02-17T16:57:58.655Z,13.15
2023-02-17T17:00:29.636Z,10.25
2023-02-17T17:02:58.705Z,9.30
2023-02-17T17:05:29.527Z,11.30
2023-02-17T17:07:58.041Z,9.75
2023-02-17T17:10:29.472Z,8.88
2023-02-17T17:12:58.457Z,11.65
2023-02-17T17:15:26.502Z,10.70
2023-02-17T17:17:57.948Z,9.93
2023-02-17T17:20:31.943Z,9.30
2023-02-17T17:23:01.125Z,11.75
2023-02-17T17:25:29.731Z,9.95
2023-02-17T17:27:58.761Z,10.23
2023-02-17T17:30:29.435Z,10.57
2023-02-17T17:32:57.709Z,8.57
2023-02-17T17:35:26.917Z,10.50
2023-02-17T17:37:57.421Z,10.40
2023-02-17T17:40:27.753Z,11.07
2023-02-17T17:42:57.177Z,11.27
2023-02-17T17:45:25.739Z,13.77
2023-02-17T17:47:54.428Z,11.05
2023-02-17T17:50:24.789Z,10.52
2023-02-17T17:52:53.239Z,9.63
2023-02-17T17:55:24.212Z,9.57
2023-02-17T17:57:53.608Z,9.50
2023-02-17T18:00:23.910Z,8.75
2023-02-17T18:02:52.230Z,10.05
2023-02-17T18:05:20.352Z,12.20
2023-02-17T18:07:49.933Z,9.43
2023-02-17T18:10:18.196Z,9.18
2023-02-17T18:12:48.470Z,7.53
2023-02-17T18:15:17.441Z,9.07
2023-02-17T18:17:46.455Z,7.50
2023-02-17T18:20:14.669Z,8.52
2023-02-17T18:22:42.996Z,8.55
2023-02-17T18:25:11.384Z,8.77
2023-02-17T18:27:41.543Z,7.30
2023-02-17T18:30:13.376Z,7.70
2023-02-17T18:32:43.324Z,8.82
2023-02-17T18:35:12.810Z,7.75
2023-02-17T18:37:41.557Z,9.27
2023-02-17T18:40:12.640Z,7.60
2023-02-17T18:42:41.264Z,6.67
2023-02-17T18:45:11.352Z,8.43
2023-02-17T18:47:39.672Z,7.47
2023-02-17T18:50:09.466Z,8.23
2023-02-17T18:52:38.015Z,7.22
2023-02-17T18:55:06.758Z,7.70
2023-02-17T18:57:35.654Z,8.73
2023-02-17T19:00:04.554Z,7.50
2023-02-17T19:02:36.590Z,6.75
2023-02-17T19:05:05.171Z,6.97
2023-02-17T19:07:34.032Z,7.63
2023-02-17T19:10:02.165Z,7.78
2023-02-17T19:12:30.402Z,9.75
2023-02-17T19:14:58.670Z,7.43
2023-02-17T19:17:27.010Z,7.22
2023-02-17T19:19:56.510Z,7.17
2023-02-17T19:22:24.765Z,6.15
2023-02-17T19:24:54.505Z,6.10
2023-02-17T19:27:22.944Z,6.18
2023-02-17T19:29:50.935Z,8.50
2023-02-17T19:32:19.471Z,7.40
2023-02-17T19:34:47.631Z,7.63
2023-02-17T19:37:17.312Z,6.40
2023-02-17T19:39:45.493Z,7.38
2023-02-17T19:42:13.933Z,6.47
2023-02-17T19:44:42.025Z,6.67
2023-02-17T19:47:10.293Z,7.07
2023-02-17T19:49:38.375Z,6.53
2023-02-17T19:52:07.404Z,8.70
2023-02-17T19:54:37.237Z,6.55
2023-02-17T19:57:05.678Z,6.63
2023-02-17T19:59:34.402Z,7.40
2023-02-17T20:02:02.737Z,8.40
2023-02-17T20:04:30.886Z,6.53
2023-02-17T20:06:59.500Z,6.25
2023-02-17T20:09:28.143Z,7.33
2023-02-17T20:11:57.791Z,7.60
2023-02-17T20:14:25.811Z,9.07
2023-02-17T20:16:55.534Z,9.85
2023-02-17T20:19:23.759Z,9.25
2023-02-17T20:21:52.080Z,9.77
2023-02-17T20:24:20.064Z,10.48
2023-02-17T20:26:48.912Z,8.38
2023-02-17T20:29:18.570Z,9.15
2023-02-17T20:31:46.965Z,8.32
2023-02-17T20:34:27.365Z,7.03
2023-02-17T20:36:55.950Z,7.07
2023-02-17T20:39:25.660Z,7.07
2023-02-17T20:41:54.634Z,7.82
2023-02-17T20:44:27.720Z,8.75
2023-02-17T20:46:57.214Z,9.00
2023-02-17T20:49:25.526Z,8.75
2023-02-17T20:51:54.351Z,7.35
2023-02-17T20:54:27.256Z,9.18
2023-02-17T20:56:57.514Z,9.35
2023-02-17T20:59:27.081Z,8.93
2023-02-17T21:01:55.640Z,9.63
2023-02-17T21:04:23.904Z,9.75
2023-02-17T21:06:52.247Z,11.02
2023-02-17T21:09:20.912Z,12.98
2023-02-17T21:11:49.252Z,12.60
2023-02-17T21:14:17.352Z,8.25
2023-02-17T21:16:47.456Z,7.88
2023-02-17T21:19:15.658Z,8.40
2023-02-17T21:21:43.919Z,7.78
2023-02-17T21:24:12.180Z,7.93
2023-02-17T21:26:40.579Z,7.18
2023-02-17T21:29:08.667Z,8.07
2023-02-17T21:31:37.155Z,7.90
2023-02-17T21:34:07.100Z,8.68
2023-02-17T21:36:35.857Z,8.50
2023-02-17T21:39:04.262Z,8.82
2023-02-17T21:41:32.841Z,6.68
2023-02-17T21:44:18.769Z,7.20
2023-02-17T21:46:47.058Z,6.95
2023-02-17T21:49:16.386Z,7.87
2023-02-17T21:51:44.752Z,8.38
2023-02-17T21:54:12.816Z,8.85
2023-02-17T21:56:41.137Z,8.68
2023-02-17T21:59:09.671Z,7.43
2023-02-17T22:01:38.221Z,7.47
2023-02-17T22:04:06.693Z,8.20
2023-02-17T22:06:38.235Z,7.63
2023-02-17T22:09:07.815Z,7.45
2023-02-17T22:11:37.447Z,7.63
2023-02-17T22:14:07.212Z,7.90
2023-02-17T22:16:36.302Z,7.82
2023-02-17T22:19:06.032Z,7.32
2023-02-17T22:21:35.995Z,7.22
2023-02-17T22:24:04.073Z,7.82
2023-02-17T22:26:32.795Z,7.30
2023-02-17T22:29:00.917Z,7.68
2023-02-17T22:31:30.749Z,7.82
2023-02-17T22:34:00.455Z,9.15
2023-02-17T22:36:34.921Z,7.35
2023-02-17T22:39:07.407Z,11.67
2023-02-17T22:41:41.288Z,7.15
2023-02-17T22:44:14.810Z,8.13
2023-02-17T22:47:08.248Z,7.93
2023-02-17T22:49:42.177Z,7.20
2023-02-17T22:52:38.308Z,7.53
2023-02-17T22:55:12.092Z,7.65
2023-02-17T22:57:48.053Z,7.60
2023-02-17T23:00:22.375Z,8.25
2023-02-17T23:02:56.221Z,8.43
2023-02-17T23:05:51.438Z,7.63
2023-02-17T23:08:27.318Z,7.57
2023-02-17T23:11:04.932Z,7.20
2023-02-17T23:13:43.868Z,7.78
2023-02-17T23:16:23.571Z,9.65
2023-02-17T23:19:01.789Z,7.27
2023-02-17T23:21:32.807Z,6.97
2023-02-17T23:24:11.001Z,7.80
2023-02-17T23:26:45.505Z,6.47
2023-02-17T23:29:18.214Z,7.05
2023-02-17T23:32:10.214Z,7.70
2023-02-17T23:34:47.557Z,8.25
2023-02-17T23:37:18.295Z,7.05
2023-02-17T23:39:53.518Z,8.30
2023-02-17T23:42:30.122Z,6.75
2023-02-17T23:45:07.216Z,7.17
2023-02-17T23:47:40.388Z,8.00
2023-02-17T23:50:15.025Z,7.80
2023-02-17T23:53:07.450Z,7.85
2023-02-17T23:55:40.849Z,5.97
2023-02-17T23:58:12.924Z,7.23
